Time;durP1;ratioP1;P1;durP2;ratioP2;P2;SDS_P1;SDS_P2;PMS_P1;PMS_P2;Temp;Humidity;BMP_temperature;BMP_pressure;BME280_temperature;BME280_humidity;BME280_pressure;Samples;Min_cycle;Max_cycle;Signal;HPM_P1;HPM_P2
2022/01/15 00:01:34;;;;;;;1.67;0.73;;;;;;;-0.78;74.93;96342.69;5041348;28;20108;-57
2022/01/15 00:03:59;;;;;;;1.58;0.85;;;;;;;-0.78;75.70;96343.50;5039704;28;20060;-57
2022/01/15 00:06:25;;;;;;;2.17;0.98;;;;;;;-0.67;76.19;96348.28;5041589;28;20044;-57
2022/01/15 00:08:50;;;;;;;1.42;0.70;;;;;;;-0.76;75.28;96354.44;5039568;28;20128;-57
2022/01/15 00:11:16;;;;;;;1.42;0.70;;;;;;;-0.78;75.98;96348.59;5038942;28;20073;-57
2022/01/15 00:13:44;;;;;;;1.77;0.85;;;;;;;-0.66;76.01;96356.72;5040620;28;20056;-58
2022/01/15 00:16:26;;;;;;;2.45;0.70;;;;;;;-0.80;76.68;96357.13;5039322;28;20034;-57
2022/01/15 00:21:26;;;;;;;1.55;0.90;;;;;;;-0.64;77.07;96363.41;5039057;28;20025;-58
2022/01/15 00:23:52;;;;;;;1.83;1.00;;;;;;;-0.61;76.83;96373.47;5039876;28;20091;-57
2022/01/15 00:26:17;;;;;;;4.22;1.10;;;;;;;-0.65;77.96;96369.38;5040041;28;20045;-57
2022/01/15 00:28:43;;;;;;;2.00;0.80;;;;;;;-0.72;77.05;96370.44;5044523;28;20333;-58
2022/01/15 00:31:09;;;;;;;1.30;0.98;;;;;;;-0.64;77.88;96367.66;5042548;28;20025;-58
2022/01/15 00:33:34;;;;;;;2.88;0.85;;;;;;;-0.60;77.77;96384.47;5042422;28;20026;-58
2022/01/15 00:36:00;;;;;;;2.60;0.80;;;;;;;-0.70;76.93;96383.91;5040799;28;20025;-58
2022/01/15 00:38:25;;;;;;;2.42;0.93;;;;;;;-0.77;77.32;96390.06;5039365;28;20037;-58
2022/01/15 00:40:51;;;;;;;1.60;0.70;;;;;;;-0.83;76.70;96359.75;5042523;28;20083;-59
2022/01/15 00:43:18;;;;;;;1.20;0.68;;;;;;;-0.72;76.10;96394.13;5043151;28;20025;-58
2022/01/15 00:45:44;;;;;;;2.05;0.68;;;;;;;-0.74;75.56;96380.66;5043416;28;20253;-58
2022/01/15 00:48:10;;;;;;;2.53;0.82;;;;;;;-0.70;75.18;96382.22;5040143;28;20041;-57
2022/01/15 00:50:35;;;;;;;3.75;0.90;;;;;;;-0.77;74.75;96378.19;5043709;28;20199;-58
2022/01/15 00:53:01;;;;;;;1.73;1.05;;;;;;;-0.73;75.30;96384.00;5042639;28;20029;-57
2022/01/15 00:55:27;;;;;;;2.90;0.90;;;;;;;-0.68;74.20;96387.25;5042706;28;20037;-58
2022/01/15 00:57:52;;;;;;;2.08;0.80;;;;;;;-0.63;73.32;96390.47;5043862;28;20226;-58
2022/01/15 01:00:22;;;;;;;2.88;0.80;;;;;;;-0.58;73.58;96392.88;5043035;28;20021;-58
2022/01/15 01:02:49;;;;;;;3.92;1.00;;;;;;;-0.57;73.05;96390.31;5027109;28;20045;-58
2022/01/15 01:05:15;;;;;;;4.10;0.82;;;;;;;-0.55;72.93;96390.25;5054950;28;20210;-58
2022/01/15 01:07:41;;;;;;;1.67;0.90;;;;;;;-0.51;72.34;96396.91;5049369;28;20033;-57
2022/01/15 01:21:32;;;;;;;3.13;0.93;;;;;;;-0.50;72.90;96401.09;5041607;28;20096;-58
2022/01/15 01:23:25;;;;;;;3.47;1.13;;;;;;;-0.40;72.62;96394.88;5051465;28;20044;-57
2022/01/15 01:25:56;;;;;;;3.03;0.98;;;;;;;-0.37;72.75;96404.06;5044409;28;20261;-57
2022/01/15 01:28:46;;;;;;;4.68;1.38;;;;;;;-0.44;72.91;96397.53;5035111;28;20033;-57
2022/01/15 01:31:21;;;;;;;1.58;0.98;;;;;;;-0.26;73.78;96404.56;5047997;28;20615;-57
2022/01/15 01:33:51;;;;;;;1.95;0.93;;;;;;;-0.25;72.80;96410.50;5032508;28;20036;-57
2022/01/15 01:41:17;;;;;;;4.38;1.13;;;;;;;-0.34;74.06;96419.25;5046898;28;20315;-58
2022/01/15 01:43:51;;;;;;;2.08;1.00;;;;;;;-0.41;74.32;96417.78;5031133;28;20033;-58
2022/01/15 01:48:46;;;;;;;2.65;1.00;;;;;;;-0.40;74.07;96427.06;5051273;28;20040;-57
2022/01/15 01:51:22;;;;;;;2.13;0.80;;;;;;;-0.51;73.62;96417.25;5045193;28;20212;-58
2022/01/15 01:53:49;;;;;;;2.17;1.13;;;;;;;-0.46;74.95;96434.88;5058012;28;20037;-58
2022/01/15 01:56:15;;;;;;;4.60;1.33;;;;;;;-0.47;75.66;96425.59;5043198;28;20025;-58
2022/01/15 01:58:40;;;;;;;3.33;1.42;;;;;;;-0.43;75.75;96430.56;5046957;28;20063;-58
2022/01/15 02:01:06;;;;;;;4.88;1.40;;;;;;;-0.48;75.65;96436.66;5054840;28;20032;-57
2022/01/15 02:03:32;;;;;;;2.95;0.90;;;;;;;-0.73;75.53;96396.72;5054346;28;20318;-57
2022/01/15 02:05:57;;;;;;;2.85;1.02;;;;;;;-0.44;75.24;96428.03;5035944;28;20223;-58
2022/01/15 02:08:23;;;;;;;1.92;0.80;;;;;;;-0.48;74.60;96429.84;5038535;28;20021;-60
2022/01/15 02:10:49;;;;;;;2.72;0.68;;;;;;;-0.56;74.41;96429.25;5054983;28;20036;-58
2022/01/15 02:13:15;;;;;;;2.55;0.80;;;;;;;-0.54;74.33;96420.69;5047785;28;20029;-58
2022/01/15 02:15:41;;;;;;;1.33;0.82;;;;;;;-0.49;73.19;96435.78;5057759;28;20083;-58
2022/01/15 02:18:07;;;;;;;2.80;0.70;;;;;;;-0.57;72.71;96430.97;5041041;28;20037;-58
2022/01/15 02:25:48;;;;;;;2.80;0.50;;;;;;;-0.71;74.99;96431.34;5040535;28;20265;-57
2022/01/15 02:28:16;;;;;;;4.20;1.00;;;;;;;-0.58;74.39;96447.06;5050762;28;20031;-59
2022/01/15 02:30:41;;;;;;;1.40;0.52;;;;;;;-0.61;74.44;96444.63;5044724;28;20033;-59
2022/01/15 02:33:08;;;;;;;0.95;0.55;;;;;;;-0.56;75.65;96445.31;5046586;28;20093;-59
2022/01/15 02:35:34;;;;;;;1.48;0.70;;;;;;;-0.51;75.92;96437.56;5048512;28;20249;-58
2022/01/15 02:38:08;;;;;;;0.60;0.50;;;;;;;-0.49;75.48;96438.34;5043294;28;20037;-59
2022/01/15 02:40:37;;;;;;;1.63;0.90;;;;;;;-0.51;76.02;96445.19;5045110;28;20214;-59
2022/01/15 02:43:12;;;;;;;1.25;0.80;;;;;;;-0.46;75.58;96445.88;5049168;28;20111;-58
2022/01/15 02:45:43;;;;;;;3.65;1.33;;;;;;;-0.55;76.53;96451.25;5037565;28;20029;-57
2022/01/15 02:48:16;;;;;;;2.38;1.02;;;;;;;-0.50;78.03;96469.69;5042064;28;20044;-58
2022/01/15 02:50:44;;;;;;;5.38;1.30;;;;;;;-0.44;77.52;96459.38;5028116;28;20061;-58
2022/01/15 02:53:11;;;;;;;3.38;1.35;;;;;;;-0.45;78.65;96465.34;5042624;28;20029;-58
2022/01/15 02:55:48;;;;;;;3.60;1.33;;;;;;;-0.47;79.12;96473.88;5026796;28;20037;-59
2022/01/15 02:58:15;;;;;;;3.47;1.17;;;;;;;-0.53;78.94;96450.31;5040462;28;20033;-57
2022/01/15 03:00:42;;;;;;;2.85;1.30;;;;;;;-0.44;78.40;96471.22;5048138;28;20059;-58
2022/01/15 03:03:07;;;;;;;2.17;1.58;;;;;;;-0.50;79.95;96464.63;5042689;28;20361;-63
2022/01/15 03:05:33;;;;;;;2.38;1.48;;;;;;;-0.58;78.46;96469.94;5041793;28;20033;-58
2022/01/15 03:07:59;;;;;;;2.35;1.40;;;;;;;-0.57;78.87;96471.63;5041640;28;20033;-58
2022/01/15 03:10:25;;;;;;;3.00;1.55;;;;;;;-0.43;79.55;96470.38;5041962;28;20029;-58
2022/01/15 03:12:54;;;;;;;5.57;1.90;;;;;;;-0.40;79.77;96475.34;5043657;28;20084;-57
2022/01/15 03:15:20;;;;;;;3.08;1.95;;;;;;;-0.35;78.41;96473.50;5050532;28;20030;-56
2022/01/15 03:17:47;;;;;;;2.60;1.75;;;;;;;-0.46;78.51;96483.16;5045866;28;20033;-56
2022/01/15 03:20:14;;;;;;;4.15;1.80;;;;;;;-0.45;79.36;96478.03;5041760;28;20033;-58
2022/01/15 03:22:40;;;;;;;6.25;2.20;;;;;;;-0.37;77.94;96480.34;5041658;28;20075;-57
2022/01/15 03:25:08;;;;;;;2.92;1.83;;;;;;;-0.44;79.10;96483.94;5041565;28;20021;-57
2022/01/15 03:27:34;;;;;;;3.33;2.03;;;;;;;-0.56;79.71;96490.22;5041335;28;20052;-56
2022/01/15 03:29:59;;;;;;;3.95;2.00;;;;;;;-0.42;79.77;96484.75;5041502;28;20373;-57
2022/01/15 03:32:25;;;;;;;2.50;1.67;;;;;;;-0.52;79.20;96474.84;5034219;28;20342;-57
2022/01/15 03:34:51;;;;;;;3.67;2.00;;;;;;;-0.52;79.71;96482.47;5032789;28;20037;-57
2022/01/15 03:37:17;;;;;;;4.15;1.45;;;;;;;-0.52;79.66;96485.00;5041393;28;20175;-57
2022/01/15 03:39:44;;;;;;;2.53;1.60;;;;;;;-0.88;79.54;96425.94;5041232;28;20020;-57
2022/01/15 03:42:14;;;;;;;1.67;1.45;;;;;;;-0.57;80.72;96483.47;5039851;28;20218;-57
2022/01/15 03:44:46;;;;;;;2.67;1.40;;;;;;;-0.76;79.93;96442.53;5055085;28;20021;-56
2022/01/15 03:47:13;;;;;;;4.13;1.35;;;;;;;-0.49;79.19;96490.88;5050879;28;20144;-56
2022/01/15 03:49:40;;;;;;;1.63;1.50;;;;;;;-0.66;80.77;96471.06;5045394;28;20041;-57
2022/01/15 03:52:07;;;;;;;1.70;1.15;;;;;;;-0.55;79.45;96494.44;5047674;28;20196;-58
2022/01/15 03:54:33;;;;;;;1.77;1.20;;;;;;;-0.54;80.78;96501.19;5047472;28;20072;-57
2022/01/15 03:56:59;;;;;;;1.92;1.50;;;;;;;-0.47;80.30;96505.22;5042379;28;20060;-57
2022/01/15 03:59:24;;;;;;;2.22;1.52;;;;;;;-0.52;81.30;96509.59;5048468;28;20036;-57
2022/01/15 04:01:50;;;;;;;4.72;1.45;;;;;;;-0.43;81.02;96504.25;5048767;28;20075;-56
2022/01/15 04:04:17;;;;;;;2.28;1.13;;;;;;;-0.53;81.30;96510.47;5045402;28;20038;-56
2022/01/15 04:06:43;;;;;;;2.92;1.52;;;;;;;-0.56;81.65;96508.84;5031595;28;20195;-56
2022/01/15 04:09:10;;;;;;;2.95;1.50;;;;;;;-0.52;81.82;96527.38;5058466;28;20036;-56
2022/01/15 04:11:35;;;;;;;4.43;1.58;;;;;;;-0.54;81.53;96513.91;5044159;28;20030;-56
2022/01/15 04:14:02;;;;;;;4.45;1.60;;;;;;;-0.54;82.18;96509.63;5046937;28;20036;-56
2022/01/15 04:16:29;;;;;;;3.88;1.70;;;;;;;-0.49;81.83;96523.94;5058617;28;20330;-56
2022/01/15 04:18:56;;;;;;;3.25;1.58;;;;;;;-0.46;82.60;96526.38;5053030;28;20032;-56
2022/01/15 04:21:21;;;;;;;4.38;1.63;;;;;;;-0.43;82.08;96526.28;5039647;28;20306;-55
2022/01/15 04:23:47;;;;;;;2.08;1.52;;;;;;;-0.80;82.55;96486.69;5053199;28;20047;-57
2022/01/15 04:26:12;;;;;;;3.40;1.95;;;;;;;-0.58;82.78;96537.75;5058828;28;20037;-59
2022/01/15 04:28:38;;;;;;;2.47;1.40;;;;;;;-0.55;81.98;96556.25;5042249;28;20041;-58
2022/01/15 04:31:08;;;;;;;4.10;1.55;;;;;;;-0.50;82.19;96542.59;5033275;28;20029;-59
2022/01/15 04:33:37;;;;;;;3.50;1.48;;;;;;;-0.53;81.88;96544.34;5052821;28;20029;-60
2022/01/15 04:36:04;;;;;;;1.58;1.45;;;;;;;-0.90;81.33;96488.63;5050652;28;20025;-59
2022/01/15 04:38:32;;;;;;;1.70;1.20;;;;;;;-0.59;81.26;96543.69;5043661;28;20029;-59
2022/01/15 04:40:58;;;;;;;2.13;1.42;;;;;;;-0.55;81.15;96568.13;5057248;28;20175;-58
2022/01/15 04:43:23;;;;;;;2.38;1.38;;;;;;;-0.63;82.05;96555.63;5051405;28;20117;-58
2022/01/15 04:45:49;;;;;;;2.92;1.40;;;;;;;-0.65;80.84;96564.19;5045520;28;20210;-57
2022/01/15 04:48:15;;;;;;;3.53;1.73;;;;;;;-0.73;80.79;96559.31;5053692;28;20056;-56
2022/01/15 04:50:40;;;;;;;4.10;1.30;;;;;;;-0.70;79.92;96577.00;5046253;28;20152;-56
2022/01/15 04:53:08;;;;;;;4.50;1.17;;;;;;;-0.73;80.57;96574.56;5042685;28;20025;-57
2022/01/15 04:55:34;;;;;;;1.23;1.08;;;;;;;-0.65;80.28;96580.25;5047057;28;20035;-56
2022/01/15 04:58:00;;;;;;;2.17;1.00;;;;;;;-0.73;79.86;96588.09;5048834;28;20230;-57
2022/01/15 05:00:25;;;;;;;1.23;0.93;;;;;;;-0.67;80.05;96594.72;5037805;28;20018;-56
2022/01/15 05:02:51;;;;;;;1.73;1.00;;;;;;;-0.64;79.18;96584.47;5044318;28;20056;-56
2022/01/15 05:05:16;;;;;;;1.20;0.88;;;;;;;-0.51;78.84;96592.59;5055808;28;20048;-58
2022/01/15 05:07:42;;;;;;;1.83;0.90;;;;;;;-0.55;79.39;96609.63;5049415;28;20026;-58
2022/01/15 05:10:10;;;;;;;1.83;0.90;;;;;;;-0.92;78.98;96548.81;5043920;28;20061;-58
2022/01/15 05:12:44;;;;;;;4.28;0.90;;;;;;;-0.62;79.88;96617.47;5043458;28;20384;-57
2022/01/15 05:15:14;;;;;;;0.73;0.68;;;;;;;-0.46;78.42;96618.69;5043704;28;20310;-57
2022/01/15 05:17:41;;;;;;;1.05;0.85;;;;;;;-0.52;79.56;96623.97;5043438;28;20028;-58
2022/01/15 05:20:09;;;;;;;1.90;0.95;;;;;;;-0.59;79.09;96641.06;5048851;28;20036;-58
2022/01/15 05:22:34;;;;;;;1.80;0.63;;;;;;;-0.70;80.12;96630.34;5046358;28;20039;-58
2022/01/15 05:25:01;;;;;;;1.13;0.60;;;;;;;-0.70;78.27;96637.97;5045069;28;20266;-58
2022/01/15 05:27:28;;;;;;;1.30;0.80;;;;;;;-0.65;78.93;96637.88;5040910;28;20535;-58
2022/01/15 05:29:54;;;;;;;1.33;0.93;;;;;;;-0.60;78.14;96646.19;5030860;28;20060;-58
2022/01/15 05:32:23;;;;;;;1.77;0.70;;;;;;;-0.64;78.39;96640.38;5036571;28;20034;-58
2022/01/15 05:34:49;;;;;;;2.45;1.35;;;;;;;-0.61;77.52;96637.75;5042978;28;20056;-58
2022/01/15 05:37:15;;;;;;;1.25;0.90;;;;;;;-0.58;78.16;96660.53;5043832;28;20039;-57
2022/01/15 05:39:40;;;;;;;0.65;0.50;;;;;;;-0.54;76.93;96662.13;5047209;28;20091;-58
2022/01/15 05:42:06;;;;;;;0.70;0.70;;;;;;;-0.59;77.74;96665.66;5051551;28;20032;-56
2022/01/15 05:44:33;;;;;;;0.95;0.68;;;;;;;-0.45;77.51;96670.41;5055886;28;20032;-56
2022/01/15 05:46:59;;;;;;;1.35;0.80;;;;;;;-0.40;77.55;96671.94;5051065;28;20051;-57
2022/01/15 05:49:25;;;;;;;0.90;0.77;;;;;;;-0.49;77.78;96672.16;5044891;28;20029;-57
2022/01/15 05:51:50;;;;;;;1.45;0.70;;;;;;;-0.55;77.08;96675.69;5055204;28;20037;-57
2022/01/15 05:54:16;;;;;;;1.35;0.80;;;;;;;-0.53;77.69;96676.50;5052396;28;20033;-58
2022/01/15 05:56:42;;;;;;;2.75;0.75;;;;;;;-0.38;77.63;96693.06;5042095;28;20386;-58
2022/01/15 05:59:08;;;;;;;0.82;0.50;;;;;;;-0.38;76.81;96689.69;5057147;28;20302;-58
2022/01/15 06:01:35;;;;;;;1.13;1.02;;;;;;;-0.42;77.54;96695.72;5051475;28;20033;-58
2022/01/15 06:04:00;;;;;;;1.85;0.95;;;;;;;-0.46;78.31;96701.75;5045761;28;20101;-58
2022/01/15 06:06:26;;;;;;;1.00;0.75;;;;;;;-0.36;77.64;96705.72;5050665;28;20024;-58
2022/01/15 06:08:52;;;;;;;1.42;0.55;;;;;;;-0.48;77.37;96714.50;5053967;28;20055;-56
2022/01/15 06:11:18;;;;;;;1.38;0.88;;;;;;;-0.45;77.99;96721.22;5046748;28;20029;-59
2022/01/15 06:13:47;;;;;;;2.25;0.80;;;;;;;-0.80;78.33;96664.50;5056679;28;20021;-58
2022/01/15 06:16:15;;;;;;;0.93;0.68;;;;;;;-0.37;77.81;96725.25;5042696;28;20043;-58
2022/01/15 06:18:40;;;;;;;1.52;0.98;;;;;;;-0.54;78.41;96735.84;5048781;28;20051;-58
2022/01/15 06:21:06;;;;;;;1.00;0.80;;;;;;;-0.52;78.90;96736.63;5044751;28;20025;-57
2022/01/15 06:23:31;;;;;;;0.90;0.77;;;;;;;-0.58;80.58;96735.97;5055528;28;20064;-57
2022/01/15 06:25:57;;;;;;;0.80;0.80;;;;;;;-0.56;80.96;96746.91;5044934;28;20334;-57
2022/01/15 06:28:23;;;;;;;1.00;0.88;;;;;;;-0.47;80.86;96753.47;5042885;28;20049;-57
2022/01/15 06:30:49;;;;;;;1.38;0.88;;;;;;;-0.47;80.69;96756.84;5046638;28;20119;-58
2022/01/15 06:33:15;;;;;;;1.90;0.90;;;;;;;-0.40;81.08;96755.81;5038022;28;20123;-58
2022/01/15 06:35:41;;;;;;;1.63;1.00;;;;;;;-0.38;80.66;96758.34;5034121;28;20036;-58
2022/01/15 06:38:06;;;;;;;2.78;1.15;;;;;;;-0.45;80.59;96761.91;5041093;28;20325;-58
2022/01/15 06:40:32;;;;;;;1.42;1.00;;;;;;;-0.50;80.48;96768.78;5042095;28;20040;-58
2022/01/15 06:43:00;;;;;;;1.10;1.00;;;;;;;-0.43;80.07;96776.25;5041881;28;20101;-58
2022/01/15 06:45:29;;;;;;;0.93;0.90;;;;;;;-0.60;80.82;96765.63;5041358;28;20036;-58
2022/01/15 06:47:56;;;;;;;2.40;1.00;;;;;;;-0.43;80.31;96780.47;5040775;28;20149;-58
2022/01/15 06:50:23;;;;;;;1.20;1.05;;;;;;;-0.42;80.58;96792.31;5039987;28;20044;-58
2022/01/15 06:52:49;;;;;;;2.55;1.10;;;;;;;-0.32;80.96;96798.03;5041455;28;20254;-57
2022/01/15 06:55:15;;;;;;;1.35;0.90;;;;;;;-0.48;80.64;96789.94;5052057;28;20032;-58
2022/01/15 06:57:40;;;;;;;1.83;0.88;;;;;;;-0.48;80.01;96793.31;5041384;28;20047;-57
2022/01/15 07:00:08;;;;;;;2.83;0.95;;;;;;;-0.94;80.77;96746.97;5041038;28;20051;-58
2022/01/15 07:02:34;;;;;;;1.20;0.80;;;;;;;-0.47;80.17;96801.75;5045472;28;20032;-59
2022/01/15 07:05:00;;;;;;;2.95;0.80;;;;;;;-0.47;80.33;96804.28;5047254;28;20230;-60
2022/01/15 07:07:26;;;;;;;1.15;0.85;;;;;;;-0.43;80.93;96810.97;5040335;28;20088;-59
2022/01/15 07:09:51;;;;;;;1.00;0.85;;;;;;;-0.40;79.79;96806.66;5039939;28;20069;-58
2022/01/15 07:12:17;;;;;;;2.08;1.00;;;;;;;-0.28;78.80;96820.78;5040502;28;20033;-58
2022/01/15 07:14:43;;;;;;;2.45;0.80;;;;;;;-0.38;78.99;96802.38;5041253;28;20116;-57
2022/01/15 07:17:10;;;;;;;1.42;0.80;;;;;;;-0.36;79.22;96817.59;5039727;28;20104;-57
2022/01/15 07:19:38;;;;;;;0.60;0.60;;;;;;;-0.25;78.95;96820.69;5050951;28;20047;-57
2022/01/15 07:22:05;;;;;;;2.00;0.88;;;;;;;-0.29;78.93;96824.19;5040485;28;20083;-59
2022/01/15 07:24:31;;;;;;;1.38;1.00;;;;;;;-0.16;79.12;96831.53;5037286;28;20060;-57
2022/01/15 07:26:57;;;;;;;2.17;0.90;;;;;;;-0.27;79.43;96826.69;5039715;28;20032;-58
2022/01/15 07:29:24;;;;;;;1.27;1.00;;;;;;;-0.02;78.57;96850.63;5035082;28;20160;-59
2022/01/15 07:31:52;;;;;;;1.73;0.98;;;;;;;-0.28;79.34;96846.22;5039400;28;20100;-58
2022/01/15 07:34:19;;;;;;;1.33;1.02;;;;;;;-0.18;79.71;96834.09;5047100;28;20633;-57
2022/01/15 07:36:50;;;;;;;1.35;1.00;;;;;;;-0.35;78.53;96854.84;5039847;28;20045;-58
2022/01/15 07:39:16;;;;;;;1.35;1.13;;;;;;;-0.27;77.94;96850.44;5041353;28;20067;-57
2022/01/15 07:41:42;;;;;;;1.58;1.08;;;;;;;-0.24;78.29;96857.16;5040209;28;20053;-58
2022/01/15 07:44:07;;;;;;;1.88;1.02;;;;;;;-0.21;78.83;96855.34;5036447;28;20088;-56
2022/01/15 07:46:33;;;;;;;2.03;0.93;;;;;;;-0.33;79.15;96854.81;5040443;28;20029;-57
2022/01/15 07:48:59;;;;;;;2.20;1.10;;;;;;;-0.41;79.03;96849.94;5049113;28;20032;-58
2022/01/15 07:51:24;;;;;;;1.35;1.08;;;;;;;-0.28;78.92;96865.72;5046133;28;20025;-58
2022/01/15 07:53:50;;;;;;;2.53;1.23;;;;;;;-0.31;79.50;96869.16;5043458;28;20032;-58
2022/01/15 07:56:16;;;;;;;2.72;1.10;;;;;;;-0.35;79.22;96865.03;5042221;28;20044;-59
2022/01/15 07:58:41;;;;;;;1.58;0.93;;;;;;;-0.30;79.63;96885.25;5053436;28;20021;-58
2022/01/15 08:01:07;;;;;;;2.15;1.35;;;;;;;-0.22;79.79;96886.72;5031811;28;20609;-59
2022/01/15 08:03:32;;;;;;;2.45;1.30;;;;;;;-0.23;78.99;96886.78;5041209;28;20029;-59
2022/01/15 08:05:58;;;;;;;1.42;1.13;;;;;;;-0.17;79.55;96891.72;5040534;28;20068;-59
2022/01/15 08:08:23;;;;;;;1.90;1.00;;;;;;;-0.27;79.76;96898.75;5047349;28;20029;-59
2022/01/15 08:10:49;;;;;;;3.13;1.10;;;;;;;-0.22;80.64;96904.53;5042933;28;20029;-59
2022/01/15 08:13:16;;;;;;;1.85;1.35;;;;;;;-0.45;80.02;96909.34;5039572;28;20033;-59
2022/01/15 08:15:41;;;;;;;2.55;1.45;;;;;;;-0.23;80.33;96905.44;5039338;28;20032;-58
2022/01/15 08:18:07;;;;;;;4.97;1.38;;;;;;;-0.12;79.93;96922.97;5039241;28;20029;-58
2022/01/15 08:20:32;;;;;;;2.38;1.00;;;;;;;-0.12;78.94;96917.03;5040334;28;20048;-59
2022/01/15 08:22:58;;;;;;;1.80;1.38;;;;;;;-0.28;78.32;96919.94;5038612;28;20260;-60
2022/01/15 08:25:25;;;;;;;1.52;0.90;;;;;;;-0.31;78.34;96912.41;5038595;28;20056;-59
2022/01/15 08:27:52;;;;;;;1.45;1.25;;;;;;;-0.41;78.63;96923.66;5039850;28;20119;-58
2022/01/15 08:30:19;;;;;;;4.38;1.40;;;;;;;-0.41;78.06;96937.19;5052440;28;20254;-59
2022/01/15 08:32:44;;;;;;;1.10;1.00;;;;;;;-0.36;77.18;96930.31;5045556;28;20056;-59
2022/01/15 08:35:11;;;;;;;1.58;1.10;;;;;;;-0.27;78.22;96948.75;5036841;28;20045;-59
2022/01/15 08:37:37;;;;;;;1.63;1.00;;;;;;;-0.11;77.01;96944.16;5048795;28;20357;-60
2022/01/15 08:40:09;;;;;;;2.50;1.27;;;;;;;-0.05;76.29;96954.19;5040822;28;20136;-58
2022/01/15 08:42:36;;;;;;;1.60;1.20;;;;;;;-0.11;75.65;96921.28;5038498;28;20061;-59
2022/01/15 08:45:03;;;;;;;2.85;1.08;;;;;;;-0.01;74.10;96946.44;5039174;28;20092;-58
2022/01/15 08:47:29;;;;;;;1.73;1.10;;;;;;;0.08;74.79;96947.91;5037231;28;20037;-59
2022/01/15 08:49:55;;;;;;;6.22;2.10;;;;;;;0.21;73.64;96951.00;5043529;28;20048;-59
2022/01/15 08:52:21;;;;;;;1.15;1.05;;;;;;;0.21;73.37;96953.53;5042723;28;20085;-59
2022/01/15 08:54:47;;;;;;;1.50;1.05;;;;;;;0.27;72.50;96961.06;5043942;28;20709;-59
2022/01/15 08:57:13;;;;;;;1.90;0.90;;;;;;;0.12;73.42;96971.59;5045507;28;20056;-58
2022/01/15 08:59:39;;;;;;;0.80;0.80;;;;;;;0.19;73.02;96980.75;5042823;28;20033;-59
2022/01/15 09:02:04;;;;;;;0.90;0.90;;;;;;;0.06;73.67;96980.22;5043797;28;20029;-58
2022/01/15 09:04:30;;;;;;;1.80;0.98;;;;;;;-0.04;73.60;96981.28;5043297;28;20036;-59
2022/01/15 09:06:55;;;;;;;2.58;1.20;;;;;;;0.09;73.43;96980.13;5040807;28;20095;-59
2022/01/15 09:09:21;;;;;;;2.13;1.27;;;;;;;0.12;73.35;96976.69;5043195;28;20032;-59
2022/01/15 09:11:47;;;;;;;6.80;3.70;;;;;;;0.15;73.01;96997.78;5039930;28;20622;-59
2022/01/15 09:14:13;;;;;;;2.42;1.25;;;;;;;0.11;73.74;96992.81;5038735;28;20064;-59
2022/01/15 09:16:39;;;;;;;2.83;1.38;;;;;;;0.31;73.59;97018.66;5041989;28;20040;-59
2022/01/15 09:19:05;;;;;;;1.85;1.13;;;;;;;0.05;73.36;96987.88;5043457;28;20196;-59
2022/01/15 09:21:30;;;;;;;3.28;2.13;;;;;;;0.21;73.86;97009.53;5042799;28;20029;-59
2022/01/15 09:23:56;;;;;;;2.67;1.20;;;;;;;0.13;75.14;97025.00;5041765;28;20025;-59
2022/01/15 09:26:35;;;;;;;3.10;1.17;;;;;;;0.16;74.36;97012.19;5041666;28;20089;-59
2022/01/15 09:31:44;;;;;;;2.80;1.45;;;;;;;0.03;74.32;97015.03;5040746;28;20065;-57
2022/01/15 09:34:10;;;;;;;13.82;1.52;;;;;;;0.12;74.96;97027.56;5043410;28;20040;-57
2022/01/15 09:36:35;;;;;;;11.07;1.95;;;;;;;0.29;75.06;97027.19;5043936;28;20036;-58
2022/01/15 09:39:01;;;;;;;7.32;1.58;;;;;;;0.31;74.84;97022.88;5043367;28;20025;-58
2022/01/15 09:41:28;;;;;;;3.40;1.40;;;;;;;0.43;75.29;97032.78;5042824;28;20045;-58
2022/01/15 09:43:55;;;;;;;4.43;2.55;;;;;;;0.37;75.29;97043.13;5043116;28;20201;-58
2022/01/15 09:46:21;;;;;;;4.72;1.80;;;;;;;0.33;76.49;97049.97;5041473;28;20026;-58
2022/01/15 09:48:48;;;;;;;6.70;1.33;;;;;;;0.12;77.19;97040.28;5043168;28;20026;-59
2022/01/15 09:51:14;;;;;;;2.40;1.10;;;;;;;0.07;77.82;97055.66;5039928;28;20215;-58
2022/01/15 09:53:41;;;;;;;6.35;1.45;;;;;;;-0.05;78.92;97072.03;5042174;28;20144;-58
2022/01/15 09:56:07;;;;;;;3.40;1.45;;;;;;;-0.07;78.02;97066.13;5042178;28;20029;-58
2022/01/15 09:58:33;;;;;;;5.80;1.67;;;;;;;-0.25;77.25;97025.84;5037378;28;20071;-58
2022/01/15 10:00:59;;;;;;;9.80;1.90;;;;;;;-0.11;78.46;97072.16;5041950;28;20125;-58
2022/01/15 10:03:24;;;;;;;9.60;1.60;;;;;;;-0.04;77.87;97060.16;5041913;28;20021;-59
2022/01/15 10:05:50;;;;;;;4.43;1.20;;;;;;;0.12;77.45;97078.47;5041556;28;20052;-59
2022/01/15 10:08:19;;;;;;;5.55;1.48;;;;;;;-0.25;77.80;97020.75;5042165;28;20047;-57
2022/01/15 10:10:50;;;;;;;3.83;1.63;;;;;;;-0.31;77.52;97015.78;5038849;28;20036;-58
2022/01/15 10:13:21;;;;;;;6.93;1.55;;;;;;;0.09;77.15;97089.53;5042503;28;20021;-58
2022/01/15 10:16:07;;;;;;;;;;;;;;;0.03;77.64;97094.78;5046977;28;20648;-58
2022/01/15 10:18:35;;;;;;;7.78;1.60;;;;;;;0.11;77.55;97092.88;5037228;28;19909;-58
2022/01/15 10:21:29;;;;;;;16.75;2.35;;;;;;;0.08;77.63;97092.94;5038178;28;20029;-59
2022/01/15 10:23:56;;;;;;;4.07;1.27;;;;;;;-0.12;76.49;97062.03;5048851;28;20056;-59
2022/01/15 10:26:28;;;;;;;7.20;2.05;;;;;;;0.10;76.27;97126.84;5026435;28;20104;-58
2022/01/15 10:28:56;;;;;;;4.32;1.17;;;;;;;0.08;75.92;97097.19;5052111;28;20136;-58
2022/01/15 10:31:24;;;;;;;2.10;1.40;;;;;;;-0.54;77.16;97053.53;5047979;28;20029;-59
2022/01/15 10:33:51;;;;;;;1.42;1.17;;;;;;;-0.08;77.64;97104.34;5038139;28;20077;-58
2022/01/15 10:36:25;;;;;;;1.67;1.17;;;;;;;0.11;76.28;97138.66;5042489;28;20029;-59
2022/01/15 10:38:52;;;;;;;2.50;1.30;;;;;;;-0.01;78.10;97118.59;5040578;28;20310;-58
2022/01/15 10:41:36;;;;;;;7.82;1.77;;;;;;;-0.08;78.29;97134.84;5038982;28;20568;-57
2022/01/15 10:44:32;;;;;;;1.23;1.08;;;;;;;-0.24;78.08;97152.97;5039603;28;20021;-59
2022/01/15 10:47:06;;;;;;;2.33;1.23;;;;;;;-0.37;78.53;97110.81;5040344;28;20033;-58
2022/01/15 10:49:32;;;;;;;1.98;1.10;;;;;;;-0.24;78.91;97159.75;5040838;28;20337;-59
2022/01/15 10:52:15;;;;;;;1.75;1.23;;;;;;;-0.12;77.32;97173.94;5044731;28;20036;-58
2022/01/15 10:55:00;;;;;;;1.88;1.20;;;;;;;-0.30;77.56;97135.28;5049982;28;20037;-58
2022/01/15 10:57:36;;;;;;;2.35;1.45;;;;;;;-0.10;77.25;97167.94;5031291;28;20033;-59
2022/01/15 11:00:08;;;;;;;2.28;1.30;;;;;;;-0.08;77.45;97195.91;5041592;28;20060;-59
2022/01/15 11:02:35;;;;;;;4.50;1.30;;;;;;;-0.35;76.86;97157.41;5041495;28;20048;-58
2022/01/15 11:05:03;;;;;;;1.63;1.10;;;;;;;-0.15;76.62;97174.00;5036886;28;20033;-59
2022/01/15 11:07:35;;;;;;;3.63;1.27;;;;;;;-0.09;75.66;97189.97;5040076;28;20283;-58
2022/01/15 11:10:02;;;;;;;3.00;1.23;;;;;;;-0.14;75.93;97193.47;5038299;28;20032;-59
2022/01/15 11:12:30;;;;;;;2.78;1.00;;;;;;;-0.22;76.50;97186.81;5045718;28;20060;-59
2022/01/15 11:14:55;;;;;;;1.65;1.40;;;;;;;-0.10;77.58;97193.38;5050572;28;20025;-59
2022/01/15 11:17:21;;;;;;;2.55;1.17;;;;;;;-0.19;77.25;97204.56;5040027;28;20268;-59
2022/01/15 11:19:51;;;;;;;1.63;1.38;;;;;;;-0.18;78.16;97195.25;5040763;28;20025;-58
2022/01/15 11:22:21;;;;;;;2.53;1.20;;;;;;;-0.09;76.96;97217.94;5040188;28;20040;-58
2022/01/15 11:24:48;;;;;;;1.83;1.30;;;;;;;-0.02;76.63;97223.75;5040719;28;20030;-58
2022/01/15 11:27:14;;;;;;;4.75;1.30;;;;;;;-0.04;76.62;97228.06;5039245;28;20048;-59
2022/01/15 11:29:42;;;;;;;3.60;1.40;;;;;;;-0.36;76.10;97257.44;5039101;28;20102;-58
2022/01/15 11:32:12;;;;;;;2.70;1.65;;;;;;;-0.50;75.33;97172.94;5038278;28;20091;-58
2022/01/15 11:34:39;;;;;;;2.22;1.30;;;;;;;-0.08;76.47;97256.94;5038745;28;20113;-59
2022/01/15 11:37:20;;;;;;;2.08;1.42;;;;;;;-0.05;76.22;97255.19;5038175;28;20060;-58
2022/01/15 11:39:47;;;;;;;4.15;1.48;;;;;;;-0.12;75.87;97255.31;5038389;28;20029;-59
2022/01/15 11:42:35;;;;;;;3.00;1.30;;;;;;;-0.10;76.78;97263.75;5040988;28;20096;-58
2022/01/15 11:45:01;;;;;;;3.58;1.33;;;;;;;-0.08;76.16;97278.13;5039118;28;20226;-59
2022/01/15 11:47:27;;;;;;;2.70;1.52;;;;;;;-0.05;75.81;97279.78;5040030;28;20075;-59
2022/01/15 11:49:54;;;;;;;2.53;1.30;;;;;;;-0.20;75.82;97275.78;5040023;28;20037;-59
2022/01/15 11:52:23;;;;;;;4.70;1.50;;;;;;;-0.28;76.48;97283.56;5036970;28;20059;-59
2022/01/15 11:54:49;;;;;;;2.10;1.35;;;;;;;-0.26;76.84;97297.09;5041878;28;20029;-59
2022/01/15 11:57:28;;;;;;;2.95;1.20;;;;;;;-0.33;78.07;97310.78;5041872;28;20045;-59
2022/01/15 11:59:55;;;;;;;2.75;1.40;;;;;;;-0.26;77.43;97304.72;5039833;28;20322;-60
2022/01/15 12:02:28;;;;;;;3.33;1.63;;;;;;;-0.35;76.09;97310.78;5068846;28;20072;-59
2022/01/15 12:04:54;;;;;;;4.70;1.30;;;;;;;-0.37;76.32;97324.38;5040924;28;20028;-59